Lovely Linda — WCV8236 — position and weather

sailwx.info

Track history (hours):
 
Tides and Currents Weather Stations Pressure Air Temp Water Temp Dewpoint Dewpoint Depression Visibility Wind Speed Wind Dir Waves Ship Positions

Lovely Linda

Owner: LUGO, PETER A, CAPE CORAL, FL. More information available from US FCC via Universal Licensing System and Coast Guard Vessel Documentation Center.

Last reported at 2017-Nov-20 00:22 UTC. Time now 2017-Nov-20 15:11 UTC.
Position N 34°09' W 119°12'.

Length 32 m.

Type: Passenger vessel. MMSI: 367077090.

Date/timePositionNaut miles runAvg speedWind from/ knotsBaromVisibWave heightAir tempDewpointWater temp
2017-Nov-20 00:22N 34°09' W 119°12'0 0.0
2017-Nov-19 23:55N 34°09' W 119°12'0 0.0
2017-Nov-19 23:19N 34°09' W 119°12'0 0.0
2017-Nov-19 22:52N 34°09' W 119°12'3 7.8
2017-Nov-19 22:29N 34°11' W 119°15'4 4.4
2017-Nov-19 21:35N 34°14' W 119°16'0 0.0
2017-Nov-19 21:14N 34°14' W 119°16'0 0.0
2017-Nov-19 20:59N 34°14' W 119°16'0 0.0
2017-Nov-19 20:29N 34°14' W 119°16'1 2.6
2017-Nov-19 20:00N 34°15' W 119°17'916.0
2017-Nov-19 19:28N 34°17' W 119°27'915.7
2017-Nov-19 18:55N 34°19' W 119°37'715.4
2017-Nov-19 18:29N 34°20' W 119°45'1015.4
2017-Nov-19 17:52N 34°22' W 119°57'614.8
2017-Nov-19 17:28N 34°23' W 120°04'3 5.3
2017-Nov-19 16:54N 34°23' W 120°07'0 0.0
2017-Nov-19 16:27N 34°23' W 120°07'2 5.0
2017-Nov-19 16:00N 34°23' W 120°10'611.4
2017-Nov-19 15:28N 34°21' W 120°17'4 7.6
2017-Nov-19 14:58N 34°22' W 120°12'5 9.7
2017-Nov-19 14:30N 34°23' W 120°07'0 0.0
2017-Nov-19 13:39N 34°23' W 120°07'0 0.0
2017-Nov-19 12:27N 34°23' W 120°07'0 0.1
2017-Nov-19 12:00N 34°23' W 120°07'0 0.0
2017-Nov-19 11:30N 34°23' W 120°07'0 0.0
2017-Nov-19 10:57N 34°23' W 120°07'0 0.1
2017-Nov-19 10:15N 34°23' W 120°07'0 0.0
2017-Nov-19 10:00N 34°23' W 120°07'0 0.1
2017-Nov-19 09:21N 34°23' W 120°07'0 0.0
2017-Nov-19 08:54N 34°23' W 120°07'0 0.0
2017-Nov-19 08:30N 34°23' W 120°07'0 0.0
2017-Nov-19 07:57N 34°23' W 120°07'0 0.0
2017-Nov-19 07:30N 34°23' W 120°07'0 0.0
2017-Nov-19 07:00N 34°23' W 120°07'0 0.0
2017-Nov-19 06:30N 34°23' W 120°07'0 0.0
2017-Nov-19 05:53N 34°23' W 120°07'0 0.0
2017-Nov-19 05:11N 34°23' W 120°07'0 0.2
2017-Nov-19 04:53N 34°23' W 120°07'0 0.0
2017-Nov-19 04:20N 34°23' W 120°07'0 0.1
2017-Nov-19 03:53N 34°23' W 120°07'0 0.0
2017-Nov-19 02:56N 34°23' W 120°07'0 0.0
2017-Nov-19 02:29N 34°23' W 120°07'0 0.0
2017-Nov-19 01:56N 34°23' W 120°07'0 0.0
2017-Nov-19 01:29N 34°23' W 120°07'0 0.0
2017-Nov-19 00:50N 34°23' W 120°07'0 0.0
2017-Nov-19 00:29N 34°23' W 120°07'0 0.1
2017-Nov-18 23:59N 34°23' W 120°07'0 0.0
2017-Nov-18 23:30N 34°23' W 120°07'0 0.0
2017-Nov-18 23:00N 34°23' W 120°07'0 0.0
2017-Nov-18 22:22N 34°23' W 120°07'0 0.0
2017-Nov-18 21:52N 34°23' W 120°07'0 0.0
2017-Nov-18 21:25N 34°23' W 120°07'0 0.1
2017-Nov-18 20:58N 34°23' W 120°07'0 0.0
2017-Nov-18 20:28N 34°23' W 120°07'0 0.0
2017-Nov-18 19:52N 34°23' W 120°07'0 0.0
2017-Nov-18 19:25N 34°23' W 120°07'0 0.0
2017-Nov-18 18:58N 34°23' W 120°07'0 0.1
2017-Nov-18 18:28N 34°23' W 120°07'1 0.9
2017-Nov-18 16:48N 34°25' W 120°06'0 0.1
2017-Nov-18 16:17N 34°25' W 120°06'1 2.4
2017-Nov-18 15:53N 34°24' W 120°06'717.5
2017-Nov-18 15:29N 34°24' W 119°58'3 0.1
2017-Nov-17 21:52N 34°26' W 119°55'0 0.6
2017-Nov-17 21:29N 34°26' W 119°55'714.9
2017-Nov-17 21:00N 34°24' W 120°04'510.6
2017-Nov-17 20:30N 34°23' W 120°10'1 1.6
2017-Nov-17 19:51N 34°22' W 120°11'1 0.6
2017-Nov-17 17:37N 34°22' W 120°10'0 0.0
2017-Nov-17 17:28N 34°22' W 120°10'1 2.8
2017-Nov-17 16:57N 34°22' W 120°11'2 4.6
2017-Nov-17 16:28N 34°21' W 120°14'715.3
2017-Nov-17 16:00N 34°23' W 120°06'915.9
2017-Nov-17 15:27N 34°25' W 119°55'0 0.4
2017-Nov-17 14:53N 34°26' W 119°55'0 0.0
2017-Nov-17 14:29N 34°26' W 119°55'0 0.0
2017-Nov-17 07:50N 34°26' W 119°55'0 0.0
2017-Nov-17 07:20N 34°26' W 119°55'0 0.0
2017-Nov-17 06:59N 34°26' W 119°55'0 0.0
2017-Nov-17 05:23N 34°26' W 119°55'0 0.0
2017-Nov-17 03:35N 34°26' W 119°55'0 0.0
2017-Nov-17 02:20N 34°26' W 119°55'0 0.0
2017-Nov-17 01:59N 34°26' W 119°55'0 0.0
2017-Nov-17 01:17N 34°26' W 119°55'0 0.0
2017-Nov-17 00:50N 34°26' W 119°55'0 0.2
2017-Nov-16 23:21N 34°26' W 119°56'515.0
2017-Nov-16 23:00N 34°24' W 120°02'713.0
2017-Nov-16 22:28N 34°23' W 120°10'613.0
2017-Nov-16 22:00N 34°21' W 120°17'813.9
2017-Nov-16 21:25N 34°23' W 120°07'4 8.7
2017-Nov-16 20:55N 34°22' W 120°12'4 1.6
2017-Nov-16 18:31N 34°21' W 120°17'0 0.0
2017-Nov-16 18:28N 34°21' W 120°17'3 6.1
2017-Nov-16 17:58N 34°22' W 120°13'713.4
2017-Nov-16 17:29N 34°24' W 120°05'816.2
2017-Nov-16 16:59N 34°25' W 119°56'1 2.1
2017-Nov-16 16:29N 34°26' W 119°55'0 0.1
2017-Nov-16 14:23N 34°26' W 119°55'0 0.0
2017-Nov-16 12:50N 34°26' W 119°55'0 0.0
2017-Nov-16 11:41N 34°26' W 119°55'0 0.0
2017-Nov-16 11:26N 34°26' W 119°55'0 0.0
2017-Nov-16 08:38N 34°26' W 119°55'0 0.0
2017-Nov-16 08:26N 34°26' W 119°55'0 0.0
2017-Nov-16 07:32N 34°26' W 119°55'0 1.0
2017-Nov-16 07:29N 34°26' W 119°55'0 0.0
2017-Nov-16 06:20N 34°26' W 119°55'0 0.0
2017-Nov-16 05:44N 34°26' W 119°55'0 0.0
2017-Nov-16 05:29N 34°26' W 119°55'0 0.0
2017-Nov-16 04:35N 34°26' W 119°55'0 0.0
2017-Nov-16 04:29N 34°26' W 119°55'0 0.0
2017-Nov-16 02:53N 34°26' W 119°55'0 0.0
2017-Nov-16 02:05N 34°26' W 119°55'0 0.0
2017-Nov-16 01:11N 34°26' W 119°55'0 0.0
2017-Nov-16 00:53N 34°26' W 119°55'0 0.0
2017-Nov-15 23:53N 34°26' W 119°55'0 0.0
2017-Nov-15 23:14N 34°26' W 119°55'0 0.0
2017-Nov-15 22:50N 34°26' W 119°55'1 1.5
2017-Nov-15 22:25N 34°25' W 119°56'816.0
2017-Nov-15 21:54N 34°24' W 120°06'4 8.6
2017-Nov-15 21:29N 34°24' W 120°01'510.8
2017-Nov-15 21:00N 34°26' W 119°55'0 0.0
2017-Nov-15 20:17N 34°26' W 119°55'0 0.0
2017-Nov-15 19:59N 34°26' W 119°55'0 0.0
2017-Nov-15 19:17N 34°26' W 119°55'0 0.0
2017-Nov-15 18:53N 34°26' W 119°55'0 0.0
2017-Nov-15 18:05N 34°26' W 119°55'0 0.1
2017-Nov-15 17:40N 34°26' W 119°55'2 7.0
2017-Nov-15 17:26N 34°24' W 119°56'716.2
2017-Nov-15 17:00N 34°24' W 120°05'2 3.5
2017-Nov-15 16:27N 34°23' W 120°07'510.9
2017-Nov-15 15:58N 34°22' W 120°13'2 3.8
2017-Nov-15 15:29N 34°22' W 120°11'4 7.4
2017-Nov-15 15:00N 34°23' W 120°07'0 0.0
2017-Nov-15 14:24N 34°23' W 120°07'0 0.0
2017-Nov-15 13:57N 34°23' W 120°07'0 0.0
2017-Nov-15 13:30N 34°23' W 120°07'0 0.0
2017-Nov-15 13:00N 34°23' W 120°07'0 0.0
2017-Nov-15 12:18N 34°23' W 120°07'0 0.0
2017-Nov-15 11:58N 34°23' W 120°07'0 0.0
2017-Nov-15 11:24N 34°23' W 120°07'0 0.0
2017-Nov-15 10:59N 34°23' W 120°07'0 0.0
2017-Nov-15 10:29N 34°23' W 120°07'0 0.1
2017-Nov-15 09:58N 34°23' W 120°07'0 0.0
2017-Nov-15 09:26N 34°23' W 120°07'0 0.0
2017-Nov-15 08:57N 34°23' W 120°07'0 0.1
2017-Nov-15 08:26N 34°23' W 120°07'0 0.0
2017-Nov-15 07:53N 34°23' W 120°07'0 0.0
2017-Nov-15 07:28N 34°23' W 120°07'0 0.1
2017-Nov-15 06:55N 34°23' W 120°07'0 0.1
2017-Nov-15 06:24N 34°23' W 120°07'0 0.0
2017-Nov-15 05:58N 34°23' W 120°07'0 0.0
2017-Nov-15 05:27N 34°23' W 120°07'0 0.0
2017-Nov-15 04:57N 34°23' W 120°07'0 0.0
2017-Nov-15 04:28N 34°23' W 120°07'0 0.0
2017-Nov-15 03:59N 34°23' W 120°07'0 0.0
2017-Nov-15 03:27N 34°23' W 120°07'0 0.0
2017-Nov-15 03:00N 34°23' W 120°07'0 0.0
2017-Nov-15 02:30N 34°23' W 120°07'0 0.0
2017-Nov-15 02:00N 34°23' W 120°07'0 0.0
2017-Nov-15 01:28N 34°23' W 120°07'0 0.0
2017-Nov-15 00:58N 34°23' W 120°07'0 0.6
2017-Nov-15 00:30N 34°23' W 120°07'814.4
2017-Nov-14 23:56N 34°21' W 120°17'4 7.6
2017-Nov-14 23:23N 34°22' W 120°12'410.1
2017-Nov-14 23:00N 34°23' W 120°07'813.9
2017-Nov-14 22:26N 34°21' W 120°17'0 0.3
2017-Nov-14 21:50N 34°21' W 120°17'410.6
2017-Nov-14 21:30N 34°22' W 120°13'2 4.2
2017-Nov-14 20:59N 34°23' W 120°10'3 4.1
2017-Nov-14 20:19N 34°23' W 120°07'0 0.1
2017-Nov-14 19:58N 34°23' W 120°07'0 0.0
2017-Nov-14 19:28N 34°23' W 120°07'0 0.0
2017-Nov-14 18:24N 34°23' W 120°07'0 0.0
2017-Nov-14 17:04N 34°23' W 120°07'0 0.2
2017-Nov-14 16:50N 34°23' W 120°07'716.6
2017-Nov-14 16:26N 34°24' W 119°59'3 5.6
2017-Nov-14 15:58N 34°25' W 119°56'715.3
2017-Nov-14 15:30N 34°23' W 120°05'4 7.8
2017-Nov-14 14:57N 34°23' W 120°10'2 4.8
2017-Nov-14 14:29N 34°23' W 120°07'0 0.0
2017-Nov-14 14:00N 34°23' W 120°07'0 0.0
2017-Nov-14 13:27N 34°23' W 120°07'0 0.0
2017-Nov-14 12:52N 34°23' W 120°07'0 0.1
2017-Nov-14 12:29N 34°23' W 120°07'0 0.0
2017-Nov-14 11:55N 34°23' W 120°07'0 0.0
2017-Nov-14 11:28N 34°23' W 120°07'0 0.0
2017-Nov-14 10:58N 34°23' W 120°07'0 0.0
2017-Nov-14 10:28N 34°23' W 120°07'0 0.0
2017-Nov-14 09:56N 34°23' W 120°07'0 0.0
2017-Nov-14 09:29N 34°23' W 120°07'0 0.0
2017-Nov-14 08:56N 34°23' W 120°07'0 0.0
2017-Nov-14 08:26N 34°23' W 120°07'0 0.1
2017-Nov-14 07:56N 34°23' W 120°07'0 0.1
2017-Nov-14 07:30N 34°23' W 120°07'0 0.0
2017-Nov-14 07:00N 34°23' W 120°07'0 0.0
2017-Nov-14 06:26N 34°23' W 120°07'0 0.0
2017-Nov-14 05:59N 34°23' W 120°07'0 0.0
2017-Nov-14 05:29N 34°23' W 120°07'0 0.1
2017-Nov-14 04:58N 34°23' W 120°07'0 0.0
2017-Nov-14 04:29N 34°23' W 120°07'0 0.0
2017-Nov-14 03:59N 34°23' W 120°07'0 0.0
2017-Nov-14 03:30N 34°23' W 120°07'0 0.0
2017-Nov-14 02:58N 34°23' W 120°07'0 0.0
2017-Nov-14 02:26N 34°23' W 120°07'0 0.0
2017-Nov-14 02:00N 34°23' W 120°07'0 0.0
2017-Nov-14 01:30N 34°23' W 120°07'3 5.3
2017-Nov-14 01:00N 34°23' W 120°10'611.6
2017-Nov-14 00:30N 34°21' W 120°17'712.6
2017-Nov-13 23:57N 34°23' W 120°09'1 3.0
2017-Nov-13 23:28N 34°23' W 120°07'0 0.1
2017-Nov-13 22:58N 34°23' W 120°07'0 0.4
2017-Nov-13 22:27N 34°23' W 120°07'0 0.1
2017-Nov-13 21:57N 34°23' W 120°07'48 2.4
2017-Nov-13 01:59N 34°09' W 119°12'0 0.0
2017-Nov-13 01:29N 34°09' W 119°12'0 0.0
2017-Nov-13 00:44N 34°09' W 119°12'0 0.0
2017-Nov-13 00:17N 34°09' W 119°12'0 0.0
2017-Nov-12 23:56N 34°09' W 119°12'0 0.0
2017-Nov-12 23:29N 34°09' W 119°12'0 0.0
2017-Nov-12 22:59N 34°09' W 119°12'0 0.0
2017-Nov-12 22:29N 34°09' W 119°12'0 0.0
2017-Nov-12 21:56N 34°09' W 119°12'0 0.1
2017-Nov-12 20:22N 34°09' W 119°12'3 9.4
2017-Nov-12 20:00N 34°09' W 119°16'815.4
2017-Nov-12 19:30N 34°13' W 119°25'915.4
2017-Nov-12 18:55N 34°16' W 119°35'815.0
2017-Nov-12 18:24N 34°19' W 119°44'814.5
2017-Nov-12 17:52N 34°21' W 119°53'614.8
2017-Nov-12 17:30N 34°22' W 119°59'712.7
2017-Nov-12 16:59N 34°23' W 120°07'0 0.6
2017-Nov-12 16:30N 34°23' W 120°07'2 4.8
2017-Nov-12 16:00N 34°23' W 120°10'610.9
2017-Nov-12 15:28N 34°21' W 120°17'613.5
2017-Nov-12 15:00N 34°23' W 120°10'2 4.3
2017-Nov-12 14:30N 34°23' W 120°07'0 0.0
2017-Nov-12 13:59N 34°23' W 120°07'0 0.0
2017-Nov-12 13:30N 34°23' W 120°07'0 0.1
2017-Nov-12 13:00N 34°23' W 120°07'0 0.1
2017-Nov-12 12:30N 34°23' W 120°07'0 0.0
2017-Nov-12 11:57N 34°23' W 120°07'0 0.0
2017-Nov-12 11:30N 34°23' W 120°07'0 0.0
2017-Nov-12 10:57N 34°23' W 120°07'0 0.0
2017-Nov-12 10:28N 34°23' W 120°07'0 0.1
2017-Nov-12 09:58N 34°23' W 120°07'0 0.1
2017-Nov-12 09:30N 34°23' W 120°07'0 0.0
2017-Nov-12 08:59N 34°23' W 120°07'0 0.0
2017-Nov-12 08:28N 34°23' W 120°07'0 0.0
2017-Nov-12 07:55N 34°23' W 120°07'0 0.0
2017-Nov-12 07:26N 34°23' W 120°07'0 0.0
2017-Nov-12 06:56N 34°23' W 120°07'0 0.0
2017-Nov-12 06:29N 34°23' W 120°07'0 0.0
2017-Nov-12 05:59N 34°23' W 120°07'0 0.0
2017-Nov-12 05:29N 34°23' W 120°07'0 0.0
2017-Nov-12 04:59N 34°23' W 120°07'0 0.0
2017-Nov-12 04:29N 34°23' W 120°07'0 0.0
2017-Nov-12 03:59N 34°23' W 120°07'0 0.0
2017-Nov-12 03:26N 34°23' W 120°07'0 0.0
2017-Nov-12 02:56N 34°23' W 120°07'0 0.1
2017-Nov-12 02:30N 34°23' W 120°07'0 0.0
2017-Nov-12 02:00N 34°23' W 120°07'0 0.0
2017-Nov-12 01:28N 34°23' W 120°07'0 0.0
2017-Nov-12 00:45N 34°23' W 120°07'0 0.0
2017-Nov-12 00:29N 34°23' W 120°07'3 5.8
2017-Nov-11 23:57N 34°23' W 120°11'510.8
2017-Nov-11 23:28N 34°21' W 120°17'1 3.1
2017-Nov-11 22:59N 34°21' W 120°15'7 9.8
2017-Nov-11 22:18N 34°23' W 120°07'0 0.7
2017-Nov-11 21:55N 34°23' W 120°07'0 0.1
2017-Nov-11 21:22N 34°23' W 120°07'0 0.0
2017-Nov-11 20:46N 34°23' W 120°07'0 0.0
2017-Nov-11 20:28N 34°23' W 120°07'0 0.0
2017-Nov-11 19:55N 34°23' W 120°07'0 0.0
2017-Nov-11 19:28N 34°23' W 120°07'0 0.1
2017-Nov-11 18:49N 34°23' W 120°07'0 0.0
2017-Nov-11 18:09N 34°23' W 120°07'0 0.0
2017-Nov-11 18:00N 34°23' W 120°07'0 0.0
2017-Nov-11 17:30N 34°23' W 120°07'0 0.9
2017-Nov-11 17:00N 34°23' W 120°08'815.4
2017-Nov-11 16:30N 34°21' W 120°17'714.1
2017-Nov-11 16:00N 34°22' W 120°08'815.8
2017-Nov-11 15:30N 34°24' W 119°59'3 0.7
2017-Nov-11 10:33N 34°26' W 119°55'0 0.0
2017-Nov-11 10:09N 34°26' W 119°55'0 0.0
2017-Nov-11 09:51N 34°26' W 119°55'0 0.0
2017-Nov-11 05:21N 34°26' W 119°55'0 0.0
2017-Nov-10 20:51N 34°26' W 119°55'0 0.0
2017-Nov-10 20:21N 34°26' W 119°55'0 0.0
2017-Nov-10 17:50N 34°26' W 119°55'0 0.0
2017-Nov-10 17:23N 34°26' W 119°55'0 0.0
2017-Nov-10 15:24N 34°26' W 119°55'0 0.0
2017-Nov-10 12:26N 34°26' W 119°55'0 0.0
2017-Nov-10 06:08N 34°26' W 119°55'0 0.0
2017-Nov-10 02:32N 34°26' W 119°55'0 0.6
2017-Nov-10 02:11N 34°26' W 119°55'1 4.9
2017-Nov-10 01:59N 34°25' W 119°56'914.8
2017-Nov-10 01:21N 34°23' W 120°07'3 6.2
2017-Nov-10 00:56N 34°23' W 120°10'612.1
2017-Nov-10 00:28N 34°21' W 120°17'  
Track history (hours):
 
Tides and Currents Weather Stations Pressure Air Temp Water Temp Dewpoint Dewpoint Depression Visibility Wind Speed Wind Dir Waves Ship Positions

Lovely Linda

Owner: LUGO, PETER A, CAPE CORAL, FL. More information available from US FCC via Universal Licensing System and Coast Guard Vessel Documentation Center.

Last reported at 2017-Nov-20 00:22 UTC. Time now 2017-Nov-20 15:12 UTC.
Position N 34°09' W 119°12'.

Length 32 m.

Type: Passenger vessel. MMSI: 367077090.

Date/timePositionNaut miles runAvg speedWind from/ knotsBaromVisibWave heightAir tempDewpointWater temp
2017-Nov-20 00:22N 34°09' W 119°12'0 0.0
2017-Nov-19 23:55N 34°09' W 119°12'0 0.0
2017-Nov-19 23:19N 34°09' W 119°12'0 0.0
2017-Nov-19 22:52N 34°09' W 119°12'3 7.8
2017-Nov-19 22:29N 34°11' W 119°15'4 4.4
2017-Nov-19 21:35N 34°14' W 119°16'0 0.0
2017-Nov-19 21:14N 34°14' W 119°16'0 0.0
2017-Nov-19 20:59N 34°14' W 119°16'0 0.0
2017-Nov-19 20:29N 34°14' W 119°16'1 2.6
2017-Nov-19 20:00N 34°15' W 119°17'916.0
2017-Nov-19 19:28N 34°17' W 119°27'915.7
2017-Nov-19 18:55N 34°19' W 119°37'715.4
2017-Nov-19 18:29N 34°20' W 119°45'1015.4
2017-Nov-19 17:52N 34°22' W 119°57'614.8
2017-Nov-19 17:28N 34°23' W 120°04'3 5.3
2017-Nov-19 16:54N 34°23' W 120°07'0 0.0
2017-Nov-19 16:27N 34°23' W 120°07'2 5.0
2017-Nov-19 16:00N 34°23' W 120°10'611.4
2017-Nov-19 15:28N 34°21' W 120°17'4 7.6
2017-Nov-19 14:58N 34°22' W 120°12'5 9.7
2017-Nov-19 14:30N 34°23' W 120°07'0 0.0
2017-Nov-19 13:39N 34°23' W 120°07'0 0.0
2017-Nov-19 12:27N 34°23' W 120°07'0 0.1
2017-Nov-19 12:00N 34°23' W 120°07'0 0.0
2017-Nov-19 11:30N 34°23' W 120°07'0 0.0
2017-Nov-19 10:57N 34°23' W 120°07'0 0.1
2017-Nov-19 10:15N 34°23' W 120°07'0 0.0
2017-Nov-19 10:00N 34°23' W 120°07'0 0.1
2017-Nov-19 09:21N 34°23' W 120°07'0 0.0
2017-Nov-19 08:54N 34°23' W 120°07'0 0.0
2017-Nov-19 08:30N 34°23' W 120°07'0 0.0
2017-Nov-19 07:57N 34°23' W 120°07'0 0.0
2017-Nov-19 07:30N 34°23' W 120°07'0 0.0
2017-Nov-19 07:00N 34°23' W 120°07'0 0.0
2017-Nov-19 06:30N 34°23' W 120°07'0 0.0
2017-Nov-19 05:53N 34°23' W 120°07'0 0.0
2017-Nov-19 05:11N 34°23' W 120°07'0 0.2
2017-Nov-19 04:53N 34°23' W 120°07'0 0.0
2017-Nov-19 04:20N 34°23' W 120°07'0 0.1
2017-Nov-19 03:53N 34°23' W 120°07'0 0.0
2017-Nov-19 02:56N 34°23' W 120°07'0 0.0
2017-Nov-19 02:29N 34°23' W 120°07'0 0.0
2017-Nov-19 01:56N 34°23' W 120°07'0 0.0
2017-Nov-19 01:29N 34°23' W 120°07'0 0.0
2017-Nov-19 00:50N 34°23' W 120°07'0 0.0
2017-Nov-19 00:29N 34°23' W 120°07'0 0.1
2017-Nov-18 23:59N 34°23' W 120°07'0 0.0
2017-Nov-18 23:30N 34°23' W 120°07'0 0.0
2017-Nov-18 23:00N 34°23' W 120°07'0 0.0
2017-Nov-18 22:22N 34°23' W 120°07'0 0.0
2017-Nov-18 21:52N 34°23' W 120°07'0 0.0
2017-Nov-18 21:25N 34°23' W 120°07'0 0.1
2017-Nov-18 20:58N 34°23' W 120°07'0 0.0
2017-Nov-18 20:28N 34°23' W 120°07'0 0.0
2017-Nov-18 19:52N 34°23' W 120°07'0 0.0
2017-Nov-18 19:25N 34°23' W 120°07'0 0.0
2017-Nov-18 18:58N 34°23' W 120°07'0 0.1
2017-Nov-18 18:28N 34°23' W 120°07'1 0.9
2017-Nov-18 16:48N 34°25' W 120°06'0 0.1
2017-Nov-18 16:17N 34°25' W 120°06'1 2.4
2017-Nov-18 15:53N 34°24' W 120°06'717.5
2017-Nov-18 15:29N 34°24' W 119°58'3 0.1
2017-Nov-17 21:52N 34°26' W 119°55'0 0.6
2017-Nov-17 21:29N 34°26' W 119°55'714.9
2017-Nov-17 21:00N 34°24' W 120°04'510.6
2017-Nov-17 20:30N 34°23' W 120°10'1 1.6
2017-Nov-17 19:51N 34°22' W 120°11'1 0.6
2017-Nov-17 17:37N 34°22' W 120°10'0 0.0
2017-Nov-17 17:28N 34°22' W 120°10'1 2.8
2017-Nov-17 16:57N 34°22' W 120°11'2 4.6
2017-Nov-17 16:28N 34°21' W 120°14'715.3
2017-Nov-17 16:00N 34°23' W 120°06'915.9
2017-Nov-17 15:27N 34°25' W 119°55'0 0.4
2017-Nov-17 14:53N 34°26' W 119°55'0 0.0
2017-Nov-17 14:29N 34°26' W 119°55'0 0.0
2017-Nov-17 07:50N 34°26' W 119°55'0 0.0
2017-Nov-17 07:20N 34°26' W 119°55'0 0.0
2017-Nov-17 06:59N 34°26' W 119°55'0 0.0
2017-Nov-17 05:23N 34°26' W 119°55'0 0.0
2017-Nov-17 03:35N 34°26' W 119°55'0 0.0
2017-Nov-17 02:20N 34°26' W 119°55'0 0.0
2017-Nov-17 01:59N 34°26' W 119°55'0 0.0
2017-Nov-17 01:17N 34°26' W 119°55'0 0.0
2017-Nov-17 00:50N 34°26' W 119°55'0 0.2
2017-Nov-16 23:21N 34°26' W 119°56'515.0
2017-Nov-16 23:00N 34°24' W 120°02'713.0
2017-Nov-16 22:28N 34°23' W 120°10'613.0
2017-Nov-16 22:00N 34°21' W 120°17'813.9
2017-Nov-16 21:25N 34°23' W 120°07'4 8.7
2017-Nov-16 20:55N 34°22' W 120°12'4 1.6
2017-Nov-16 18:31N 34°21' W 120°17'0 0.0
2017-Nov-16 18:28N 34°21' W 120°17'3 6.1
2017-Nov-16 17:58N 34°22' W 120°13'713.4
2017-Nov-16 17:29N 34°24' W 120°05'816.2
2017-Nov-16 16:59N 34°25' W 119°56'1 2.1
2017-Nov-16 16:29N 34°26' W 119°55'0 0.1
2017-Nov-16 14:23N 34°26' W 119°55'0 0.0
2017-Nov-16 12:50N 34°26' W 119°55'0 0.0
2017-Nov-16 11:41N 34°26' W 119°55'0 0.0
2017-Nov-16 11:26N 34°26' W 119°55'0 0.0
2017-Nov-16 08:38N 34°26' W 119°55'0 0.0
2017-Nov-16 08:26N 34°26' W 119°55'0 0.0
2017-Nov-16 07:32N 34°26' W 119°55'0 1.0
2017-Nov-16 07:29N 34°26' W 119°55'0 0.0
2017-Nov-16 06:20N 34°26' W 119°55'0 0.0
2017-Nov-16 05:44N 34°26' W 119°55'0 0.0
2017-Nov-16 05:29N 34°26' W 119°55'0 0.0
2017-Nov-16 04:35N 34°26' W 119°55'0 0.0
2017-Nov-16 04:29N 34°26' W 119°55'0 0.0
2017-Nov-16 02:53N 34°26' W 119°55'0 0.0
2017-Nov-16 02:05N 34°26' W 119°55'0 0.0
2017-Nov-16 01:11N 34°26' W 119°55'0 0.0
2017-Nov-16 00:53N 34°26' W 119°55'0 0.0
2017-Nov-15 23:53N 34°26' W 119°55'0 0.0
2017-Nov-15 23:14N 34°26' W 119°55'0 0.0
2017-Nov-15 22:50N 34°26' W 119°55'1 1.5
2017-Nov-15 22:25N 34°25' W 119°56'816.0
2017-Nov-15 21:54N 34°24' W 120°06'4 8.6
2017-Nov-15 21:29N 34°24' W 120°01'510.8
2017-Nov-15 21:00N 34°26' W 119°55'0 0.0
2017-Nov-15 20:17N 34°26' W 119°55'0 0.0
2017-Nov-15 19:59N 34°26' W 119°55'0 0.0
2017-Nov-15 19:17N 34°26' W 119°55'0 0.0
2017-Nov-15 18:53N 34°26' W 119°55'0 0.0
2017-Nov-15 18:05N 34°26' W 119°55'0 0.1
2017-Nov-15 17:40N 34°26' W 119°55'2 7.0
2017-Nov-15 17:26N 34°24' W 119°56'716.2
2017-Nov-15 17:00N 34°24' W 120°05'2 3.5
2017-Nov-15 16:27N 34°23' W 120°07'510.9
2017-Nov-15 15:58N 34°22' W 120°13'2 3.8
2017-Nov-15 15:29N 34°22' W 120°11'4 7.4
2017-Nov-15 15:00N 34°23' W 120°07'0 0.0
2017-Nov-15 14:24N 34°23' W 120°07'0 0.0
2017-Nov-15 13:57N 34°23' W 120°07'0 0.0
2017-Nov-15 13:30N 34°23' W 120°07'0 0.0
2017-Nov-15 13:00N 34°23' W 120°07'0 0.0
2017-Nov-15 12:18N 34°23' W 120°07'0 0.0
2017-Nov-15 11:58N 34°23' W 120°07'0 0.0
2017-Nov-15 11:24N 34°23' W 120°07'0 0.0
2017-Nov-15 10:59N 34°23' W 120°07'0 0.0
2017-Nov-15 10:29N 34°23' W 120°07'0 0.1
2017-Nov-15 09:58N 34°23' W 120°07'0 0.0
2017-Nov-15 09:26N 34°23' W 120°07'0 0.0
2017-Nov-15 08:57N 34°23' W 120°07'0 0.1
2017-Nov-15 08:26N 34°23' W 120°07'0 0.0
2017-Nov-15 07:53N 34°23' W 120°07'0 0.0
2017-Nov-15 07:28N 34°23' W 120°07'0 0.1
2017-Nov-15 06:55N 34°23' W 120°07'0 0.1
2017-Nov-15 06:24N 34°23' W 120°07'0 0.0
2017-Nov-15 05:58N 34°23' W 120°07'0 0.0
2017-Nov-15 05:27N 34°23' W 120°07'0 0.0
2017-Nov-15 04:57N 34°23' W 120°07'0 0.0
2017-Nov-15 04:28N 34°23' W 120°07'0 0.0
2017-Nov-15 03:59N 34°23' W 120°07'0 0.0
2017-Nov-15 03:27N 34°23' W 120°07'0 0.0
2017-Nov-15 03:00N 34°23' W 120°07'0 0.0
2017-Nov-15 02:30N 34°23' W 120°07'0 0.0
2017-Nov-15 02:00N 34°23' W 120°07'0 0.0
2017-Nov-15 01:28N 34°23' W 120°07'0 0.0
2017-Nov-15 00:58N 34°23' W 120°07'0 0.6
2017-Nov-15 00:30N 34°23' W 120°07'814.4
2017-Nov-14 23:56N 34°21' W 120°17'4 7.6
2017-Nov-14 23:23N 34°22' W 120°12'410.1
2017-Nov-14 23:00N 34°23' W 120°07'813.9
2017-Nov-14 22:26N 34°21' W 120°17'0 0.3
2017-Nov-14 21:50N 34°21' W 120°17'410.6
2017-Nov-14 21:30N 34°22' W 120°13'2 4.2
2017-Nov-14 20:59N 34°23' W 120°10'3 4.1
2017-Nov-14 20:19N 34°23' W 120°07'0 0.1
2017-Nov-14 19:58N 34°23' W 120°07'0 0.0
2017-Nov-14 19:28N 34°23' W 120°07'0 0.0
2017-Nov-14 18:24N 34°23' W 120°07'0 0.0
2017-Nov-14 17:04N 34°23' W 120°07'0 0.2
2017-Nov-14 16:50N 34°23' W 120°07'716.6
2017-Nov-14 16:26N 34°24' W 119°59'3 5.6
2017-Nov-14 15:58N 34°25' W 119°56'715.3
2017-Nov-14 15:30N 34°23' W 120°05'4 7.8
2017-Nov-14 14:57N 34°23' W 120°10'2 4.8
2017-Nov-14 14:29N 34°23' W 120°07'0 0.0
2017-Nov-14 14:00N 34°23' W 120°07'0 0.0
2017-Nov-14 13:27N 34°23' W 120°07'0 0.0
2017-Nov-14 12:52N 34°23' W 120°07'0 0.1
2017-Nov-14 12:29N 34°23' W 120°07'0 0.0
2017-Nov-14 11:55N 34°23' W 120°07'0 0.0
2017-Nov-14 11:28N 34°23' W 120°07'0 0.0
2017-Nov-14 10:58N 34°23' W 120°07'0 0.0
2017-Nov-14 10:28N 34°23' W 120°07'0 0.0
2017-Nov-14 09:56N 34°23' W 120°07'0 0.0
2017-Nov-14 09:29N 34°23' W 120°07'0 0.0
2017-Nov-14 08:56N 34°23' W 120°07'0 0.0
2017-Nov-14 08:26N 34°23' W 120°07'0 0.1
2017-Nov-14 07:56N 34°23' W 120°07'0 0.1
2017-Nov-14 07:30N 34°23' W 120°07'0 0.0
2017-Nov-14 07:00N 34°23' W 120°07'0 0.0
2017-Nov-14 06:26N 34°23' W 120°07'0 0.0
2017-Nov-14 05:59N 34°23' W 120°07'0 0.0
2017-Nov-14 05:29N 34°23' W 120°07'0 0.1
2017-Nov-14 04:58N 34°23' W 120°07'0 0.0
2017-Nov-14 04:29N 34°23' W 120°07'0 0.0
2017-Nov-14 03:59N 34°23' W 120°07'0 0.0
2017-Nov-14 03:30N 34°23' W 120°07'0 0.0
2017-Nov-14 02:58N 34°23' W 120°07'0 0.0
2017-Nov-14 02:26N 34°23' W 120°07'0 0.0
2017-Nov-14 02:00N 34°23' W 120°07'0 0.0
2017-Nov-14 01:30N 34°23' W 120°07'3 5.3
2017-Nov-14 01:00N 34°23' W 120°10'611.6
2017-Nov-14 00:30N 34°21' W 120°17'712.6
2017-Nov-13 23:57N 34°23' W 120°09'1 3.0
2017-Nov-13 23:28N 34°23' W 120°07'0 0.1
2017-Nov-13 22:58N 34°23' W 120°07'0 0.4
2017-Nov-13 22:27N 34°23' W 120°07'0 0.1
2017-Nov-13 21:57N 34°23' W 120°07'48 2.4
2017-Nov-13 01:59N 34°09' W 119°12'0 0.0
2017-Nov-13 01:29N 34°09' W 119°12'0 0.0
2017-Nov-13 00:44N 34°09' W 119°12'0 0.0
2017-Nov-13 00:17N 34°09' W 119°12'0 0.0
2017-Nov-12 23:56N 34°09' W 119°12'0 0.0
2017-Nov-12 23:29N 34°09' W 119°12'0 0.0
2017-Nov-12 22:59N 34°09' W 119°12'0 0.0
2017-Nov-12 22:29N 34°09' W 119°12'0 0.0
2017-Nov-12 21:56N 34°09' W 119°12'0 0.1
2017-Nov-12 20:22N 34°09' W 119°12'3 9.4
2017-Nov-12 20:00N 34°09' W 119°16'815.4
2017-Nov-12 19:30N 34°13' W 119°25'915.4
2017-Nov-12 18:55N 34°16' W 119°35'815.0
2017-Nov-12 18:24N 34°19' W 119°44'814.5
2017-Nov-12 17:52N 34°21' W 119°53'614.8
2017-Nov-12 17:30N 34°22' W 119°59'712.7
2017-Nov-12 16:59N 34°23' W 120°07'0 0.6
2017-Nov-12 16:30N 34°23' W 120°07'2 4.8
2017-Nov-12 16:00N 34°23' W 120°10'610.9
2017-Nov-12 15:28N 34°21' W 120°17'613.5
2017-Nov-12 15:00N 34°23' W 120°10'2 4.3
2017-Nov-12 14:30N 34°23' W 120°07'0 0.0
2017-Nov-12 13:59N 34°23' W 120°07'0 0.0
2017-Nov-12 13:30N 34°23' W 120°07'0 0.1
2017-Nov-12 13:00N 34°23' W 120°07'0 0.1
2017-Nov-12 12:30N 34°23' W 120°07'0 0.0
2017-Nov-12 11:57N 34°23' W 120°07'0 0.0
2017-Nov-12 11:30N 34°23' W 120°07'0 0.0
2017-Nov-12 10:57N 34°23' W 120°07'0 0.0
2017-Nov-12 10:28N 34°23' W 120°07'0 0.1
2017-Nov-12 09:58N 34°23' W 120°07'0 0.1
2017-Nov-12 09:30N 34°23' W 120°07'0 0.0
2017-Nov-12 08:59N 34°23' W 120°07'0 0.0
2017-Nov-12 08:28N 34°23' W 120°07'0 0.0
2017-Nov-12 07:55N 34°23' W 120°07'0 0.0
2017-Nov-12 07:26N 34°23' W 120°07'0 0.0
2017-Nov-12 06:56N 34°23' W 120°07'0 0.0
2017-Nov-12 06:29N 34°23' W 120°07'0 0.0
2017-Nov-12 05:59N 34°23' W 120°07'0 0.0
2017-Nov-12 05:29N 34°23' W 120°07'0 0.0
2017-Nov-12 04:59N 34°23' W 120°07'0 0.0
2017-Nov-12 04:29N 34°23' W 120°07'0 0.0
2017-Nov-12 03:59N 34°23' W 120°07'0 0.0
2017-Nov-12 03:26N 34°23' W 120°07'0 0.0
2017-Nov-12 02:56N 34°23' W 120°07'0 0.1
2017-Nov-12 02:30N 34°23' W 120°07'0 0.0
2017-Nov-12 02:00N 34°23' W 120°07'0 0.0
2017-Nov-12 01:28N 34°23' W 120°07'0 0.0
2017-Nov-12 00:45N 34°23' W 120°07'0 0.0
2017-Nov-12 00:29N 34°23' W 120°07'3 5.8
2017-Nov-11 23:57N 34°23' W 120°11'510.8
2017-Nov-11 23:28N 34°21' W 120°17'1 3.1
2017-Nov-11 22:59N 34°21' W 120°15'7 9.8
2017-Nov-11 22:18N 34°23' W 120°07'0 0.7
2017-Nov-11 21:55N 34°23' W 120°07'0 0.1
2017-Nov-11 21:22N 34°23' W 120°07'0 0.0
2017-Nov-11 20:46N 34°23' W 120°07'0 0.0
2017-Nov-11 20:28N 34°23' W 120°07'0 0.0
2017-Nov-11 19:55N 34°23' W 120°07'0 0.0
2017-Nov-11 19:28N 34°23' W 120°07'0 0.1
2017-Nov-11 18:49N 34°23' W 120°07'0 0.0
2017-Nov-11 18:09N 34°23' W 120°07'0 0.0
2017-Nov-11 18:00N 34°23' W 120°07'0 0.0
2017-Nov-11 17:30N 34°23' W 120°07'0 0.9
2017-Nov-11 17:00N 34°23' W 120°08'815.4
2017-Nov-11 16:30N 34°21' W 120°17'714.1
2017-Nov-11 16:00N 34°22' W 120°08'815.8
2017-Nov-11 15:30N 34°24' W 119°59'3 0.7
2017-Nov-11 10:33N 34°26' W 119°55'0 0.0
2017-Nov-11 10:09N 34°26' W 119°55'0 0.0
2017-Nov-11 09:51N 34°26' W 119°55'0 0.0
2017-Nov-11 05:21N 34°26' W 119°55'0 0.0
2017-Nov-10 20:51N 34°26' W 119°55'0 0.0
2017-Nov-10 20:21N 34°26' W 119°55'0 0.0
2017-Nov-10 17:50N 34°26' W 119°55'0 0.0
2017-Nov-10 17:23N 34°26' W 119°55'0 0.0
2017-Nov-10 15:24N 34°26' W 119°55'0 0.0
2017-Nov-10 12:26N 34°26' W 119°55'0 0.0
2017-Nov-10 06:08N 34°26' W 119°55'0 0.0
2017-Nov-10 02:32N 34°26' W 119°55'0 0.6
2017-Nov-10 02:11N 34°26' W 119°55'1 4.9
2017-Nov-10 01:59N 34°25' W 119°56'914.8
2017-Nov-10 01:21N 34°23' W 120°07'3 6.2
2017-Nov-10 00:56N 34°23' W 120°10'612.1
2017-Nov-10 00:28N 34°21' W 120°17'  

Dump ship's entire track history